Thursday, October 18, 2018, 10:47 AM EDT
Back to Local

KGED, Georgetown Sussex Co Airport

Location: Georgetown, DE, United States Lat: 38.683
Local Time: 10:47 AM EDT (14:47 GMT) Lon: -75.367
Time Zone: US/Eastern Elev: 52 ft

Show me the last for .
Show Coded

Time T Td Feel RH Dir Speed Gust Alt SLP Vis Weather Sky Remarks
2018-10-18 09:54 52 30 - 42 350° 10 23 30.42 30.42 10 CLR None
2018-10-18 08:54 49 32 47 51 Variable 6 - 30.41 30.40 10 CLR None
2018-10-18 07:54 45 34 43 65 290° 5 - 30.39 30.38 10 CLR 6-hr Min Temp (8am): 41.0°F
6-hr Max Temp (8am): 52.0°F
2018-10-18 06:54 42 35 40 75 240° 3 - 30.36 30.36 10 CLR None
2018-10-18 05:54 47 33 - 58 - Calm - 30.34 30.34 10 CLR None
2018-10-18 04:54 49 33 47 54 10° 6 - 30.31 30.31 10 CLR None
2018-10-18 03:54 50 34 47 53 350° 7 - 30.29 30.28 10 CLR None
2018-10-18 02:54 52 36 - 54 340° 8 - 30.26 30.26 10 FEW070 None
2018-10-18 01:54 51 39 - 63 - Calm - 30.24 30.24 10 FEW070 BKN080 6-hr Min Temp (2am): 51.1°F
6-hr Max Temp (2am): 62.1°F
2018-10-18 00:54 52 40 - 63 Variable 5 - 30.22 30.21 10 FEW090 24-hr Min Temp (1am): 51.1°F
24-hr Max Temp (1am): 68.0°F
2018-10-17 23:54 54 39 - 56 350° 3 - 30.20 30.19 10 SCT085 None
2018-10-17 22:54 54 40 - 58 320° 3 - 30.17 30.17 10 FEW085 None
2018-10-17 21:54 55 40 - 56 - Calm - 30.15 30.14 10 FEW080 None
2018-10-17 20:54 59 40 - 49 320° 5 - 30.11 30.11 10 CLR None
2018-10-17 19:54 62 40 - 44 320° 7 - 30.09 30.09 10 6-hr Min Temp (8pm): 62.1°F
6-hr Max Temp (8pm): 68.0°F
2018-10-17 18:54 62 43 - 49 300° 3 - 30.05 30.05 10 CLR None
2018-10-17 17:54 65 41 - 41 260° 5 - 30.02 30.01 10 CLR None
2018-10-17 16:54 67 39 - 35 260° 8 - 30.00 30.00 10 CLR None
2018-10-17 15:54 67 37 - 33 280° 15 24 29.99 29.99 10 CLR None
2018-10-17 14:54 68 37 - 32 290° 15 25 30.00 30.00 10 CLR Peak wind: 29 mph (26 kts) from 300° at 33 min
2018-10-17 13:54 67 38 - 34 300° 15 23 30.02 30.01 10 CLR 6-hr Min Temp (2pm): 57.0°F
6-hr Max Temp (2pm): 66.9°F
2018-10-17 12:54 67 36 - 31 300° 12 22 30.04 30.04 10 CLR None
2018-10-17 11:54 65 32 - 29 290° 12 25 30.07 30.06 10 CLR None
2018-10-17 10:54 63 42 - 46 300° 9 - 30.08 30.07 10 CLR None

Support USWX by starting your Amazon purchase here.